createdAt,value
2022-10-18T00:00:07.194Z,5.10
2022-10-18T00:00:17.268Z,6.70
2022-10-18T00:00:27.386Z,7.10
2022-10-18T00:00:37.376Z,7.00
2022-10-18T00:00:47.136Z,6.90
2022-10-18T00:00:57.305Z,7.70
2022-10-18T00:01:07.097Z,8.40
2022-10-18T00:01:17.164Z,7.20
2022-10-18T00:01:27.375Z,6.20
2022-10-18T00:01:37.160Z,6.20
2022-10-18T00:01:47.218Z,6.10
2022-10-18T00:01:57.272Z,6.10
2022-10-18T00:02:07.260Z,7.40
2022-10-18T00:02:17.399Z,7.60
2022-10-18T00:02:27.476Z,8.10
2022-10-18T00:02:37.208Z,6.30
2022-10-18T00:02:47.330Z,6.60
2022-10-18T00:02:57.351Z,7.60
2022-10-18T00:03:07.214Z,8.80
2022-10-18T00:03:17.392Z,8.00
2022-10-18T00:03:27.247Z,6.70
2022-10-18T00:03:37.353Z,6.20
2022-10-18T00:03:47.385Z,6.20
2022-10-18T00:03:57.114Z,6.80
2022-10-18T00:04:07.265Z,6.80
2022-10-18T00:04:17.316Z,6.40
2022-10-18T00:04:27.182Z,6.00
2022-10-18T00:04:37.154Z,5.50
2022-10-18T00:04:47.437Z,5.70
2022-10-18T00:04:57.180Z,7.90
2022-10-18T00:05:07.288Z,8.20
2022-10-18T00:05:17.272Z,9.30
2022-10-18T00:05:27.335Z,6.90
2022-10-18T00:05:37.254Z,7.70
2022-10-18T00:05:47.223Z,6.90
2022-10-18T00:05:57.320Z,6.30
2022-10-18T00:06:07.341Z,5.60
2022-10-18T00:06:17.343Z,5.20
2022-10-18T00:06:27.363Z,5.80
2022-10-18T00:06:39.847Z,5.70
2022-10-18T00:06:47.107Z,5.70
2022-10-18T00:06:57.399Z,5.50
2022-10-18T00:07:07.194Z,5.10
2022-10-18T00:07:17.351Z,6.00
2022-10-18T00:07:27.333Z,6.50
2022-10-18T00:07:37.170Z,6.90
2022-10-18T00:07:47.338Z,6.00
2022-10-18T00:07:57.245Z,5.20
2022-10-18T00:08:07.163Z,6.20
2022-10-18T00:08:17.548Z,7.10
2022-10-18T00:08:27.346Z,9.00
2022-10-18T00:08:37.380Z,7.60
2022-10-18T00:08:47.157Z,7.20
2022-10-18T00:08:57.114Z,7.90
2022-10-18T00:09:07.244Z,8.10
2022-10-18T00:09:17.307Z,9.30
2022-10-18T00:09:27.292Z,7.20
2022-10-18T00:09:37.121Z,6.60
2022-10-18T00:09:47.117Z,5.80
2022-10-18T00:09:57.435Z,6.20
2022-10-18T00:10:07.192Z,6.60
2022-10-18T00:10:17.352Z,7.70
2022-10-18T00:10:27.366Z,6.70
2022-10-18T00:10:37.233Z,6.40
2022-10-18T00:10:47.284Z,6.30
2022-10-18T00:10:57.119Z,7.80
2022-10-18T00:11:07.252Z,7.70
2022-10-18T00:11:17.193Z,7.80
2022-10-18T00:11:27.237Z,6.40
2022-10-18T00:11:37.140Z,7.30
2022-10-18T00:11:47.377Z,6.20
2022-10-18T00:11:57.187Z,6.60
2022-10-18T00:12:07.362Z,5.60
2022-10-18T00:12:17.342Z,5.80
2022-10-18T00:12:27.218Z,6.60
2022-10-18T00:12:37.258Z,6.90
2022-10-18T00:12:57.234Z,6.40
2022-10-18T00:13:07.183Z,6.50
2022-10-18T00:13:17.284Z,6.50
2022-10-18T00:13:27.107Z,7.40
2022-10-18T00:13:37.287Z,8.40
2022-10-18T00:13:47.325Z,8.30
2022-10-18T00:13:57.175Z,6.80
2022-10-18T00:14:07.165Z,6.50
2022-10-18T00:14:17.211Z,6.10
2022-10-18T00:14:27.212Z,7.10
2022-10-18T00:14:37.236Z,6.60
2022-10-18T00:14:47.283Z,7.60
2022-10-18T00:14:57.326Z,6.70
2022-10-18T00:15:07.223Z,6.20
2022-10-18T00:15:17.105Z,5.40
2022-10-18T00:15:27.099Z,6.30
2022-10-18T00:15:37.107Z,7.20
2022-10-18T00:15:47.319Z,6.80
2022-10-18T00:15:57.372Z,6.70
2022-10-18T00:16:07.126Z,6.60
2022-10-18T00:16:17.327Z,6.90
2022-10-18T00:16:27.346Z,7.00
2022-10-18T00:16:37.172Z,5.90
2022-10-18T00:16:47.390Z,5.60
2022-10-18T00:16:57.243Z,5.30
2022-10-18T00:17:07.329Z,5.50
2022-10-18T00:17:17.264Z,5.80
2022-10-18T00:17:27.611Z,6.30
2022-10-18T00:17:37.324Z,6.60
2022-10-18T00:17:47.265Z,8.20
2022-10-18T00:17:57.338Z,8.00
2022-10-18T00:18:07.320Z,8.50
2022-10-18T00:18:17.361Z,6.90
2022-10-18T00:18:27.175Z,6.10
2022-10-18T00:18:37.267Z,5.60
2022-10-18T00:18:47.153Z,5.50
2022-10-18T00:18:57.216Z,6.40
2022-10-18T00:19:07.145Z,6.60
2022-10-18T00:19:17.187Z,7.10
2022-10-18T00:19:29.315Z,6.70
2022-10-18T00:19:37.304Z,7.20
2022-10-18T00:19:47.440Z,7.80
2022-10-18T00:19:57.296Z,8.40
2022-10-18T00:20:07.305Z,8.80
2022-10-18T00:20:17.361Z,8.30
2022-10-18T00:20:27.418Z,7.50
2022-10-18T00:20:37.112Z,6.70
2022-10-18T00:20:47.379Z,7.20
2022-10-18T00:20:57.251Z,7.90
2022-10-18T00:21:07.195Z,7.20
2022-10-18T00:21:17.232Z,6.30
2022-10-18T00:21:27.253Z,6.50
2022-10-18T00:21:37.408Z,8.10
2022-10-18T00:21:47.314Z,8.90
2022-10-18T00:21:57.166Z,7.40
2022-10-18T00:22:07.357Z,6.10
2022-10-18T00:22:17.366Z,5.70
2022-10-18T00:22:27.146Z,7.50
2022-10-18T00:22:37.137Z,8.40
2022-10-18T00:22:47.295Z,8.10
2022-10-18T00:22:57.138Z,7.80
2022-10-18T00:23:07.139Z,7.60
2022-10-18T00:23:17.183Z,8.80
2022-10-18T00:23:27.447Z,7.20
2022-10-18T00:23:37.172Z,6.10
2022-10-18T00:23:47.210Z,4.70
2022-10-18T00:23:57.263Z,6.20
2022-10-18T00:24:07.315Z,6.80
2022-10-18T00:24:19.809Z,5.50
2022-10-18T00:24:27.205Z,6.20
2022-10-18T00:24:37.117Z,6.20
2022-10-18T00:24:47.199Z,6.40
2022-10-18T00:24:57.373Z,5.90
2022-10-18T00:25:07.215Z,5.70
2022-10-18T00:25:17.292Z,6.00
2022-10-18T00:25:27.214Z,5.20
2022-10-18T00:25:37.198Z,5.80
2022-10-18T00:25:47.245Z,7.20
2022-10-18T00:25:57.188Z,8.10
2022-10-18T00:26:07.306Z,7.80
2022-10-18T00:26:17.295Z,6.70
2022-10-18T00:26:27.170Z,6.50
2022-10-18T00:26:37.133Z,6.80
2022-10-18T00:26:47.344Z,6.70
2022-10-18T00:26:57.327Z,8.60
2022-10-18T00:27:07.318Z,8.60
2022-10-18T00:27:17.103Z,10.90
2022-10-18T00:27:28.296Z,9.10
2022-10-18T00:27:37.111Z,8.60
2022-10-18T00:27:47.109Z,6.30
2022-10-18T00:27:57.236Z,5.90
2022-10-18T00:28:07.182Z,6.00
2022-10-18T00:28:17.165Z,6.70
2022-10-18T00:28:27.198Z,6.80
2022-10-18T00:28:37.258Z,6.80
2022-10-18T00:28:47.206Z,6.50
2022-10-18T00:28:57.182Z,6.90
2022-10-18T00:29:07.140Z,6.70
2022-10-18T00:29:17.292Z,6.70
2022-10-18T00:29:27.236Z,6.80
2022-10-18T00:29:37.405Z,6.60
2022-10-18T00:29:47.356Z,6.90
2022-10-18T00:29:57.417Z,6.70
2022-10-18T00:30:07.335Z,7.00
2022-10-18T00:30:17.313Z,5.70
2022-10-18T00:30:27.121Z,5.90
2022-10-18T00:30:37.290Z,5.90
2022-10-18T00:30:47.145Z,7.50
2022-10-18T00:30:57.164Z,6.60
2022-10-18T00:31:07.122Z,8.20
2022-10-18T00:31:17.152Z,6.60
2022-10-18T00:31:27.375Z,7.90
2022-10-18T00:31:37.380Z,6.10
2022-10-18T00:31:47.369Z,7.60
2022-10-18T00:31:57.134Z,8.00
2022-10-18T00:32:07.349Z,8.70
2022-10-18T00:32:17.349Z,8.20
2022-10-18T00:32:27.313Z,6.90
2022-10-18T00:32:37.284Z,6.80
2022-10-18T00:32:52.286Z,7.60
2022-10-18T00:32:57.255Z,7.70
2022-10-18T00:33:07.132Z,8.10
2022-10-18T00:33:17.268Z,7.70
2022-10-18T00:33:27.391Z,6.20
2022-10-18T00:33:40.461Z,5.00
2022-10-18T00:33:47.223Z,5.10
2022-10-18T00:33:57.159Z,5.00
2022-10-18T00:34:07.110Z,5.50
2022-10-18T00:34:17.354Z,5.80
2022-10-18T00:34:27.378Z,7.20
2022-10-18T00:34:37.183Z,7.10
2022-10-18T00:34:47.187Z,7.10
2022-10-18T00:34:57.338Z,7.60
2022-10-18T00:35:07.255Z,6.90
2022-10-18T00:35:17.186Z,7.20
2022-10-18T00:35:27.172Z,6.00
2022-10-18T00:35:37.114Z,6.60
2022-10-18T00:35:47.354Z,6.30
2022-10-18T00:35:57.315Z,6.40
2022-10-18T00:36:07.255Z,7.50
2022-10-18T00:36:17.464Z,7.60
2022-10-18T00:36:27.231Z,7.30
2022-10-18T00:36:37.207Z,6.00
2022-10-18T00:36:47.303Z,5.50
2022-10-18T00:36:57.370Z,5.40
2022-10-18T00:37:07.139Z,6.30
2022-10-18T00:37:17.106Z,5.60
2022-10-18T00:37:27.277Z,5.40
2022-10-18T00:37:37.203Z,5.10
2022-10-18T00:37:47.308Z,5.60
2022-10-18T00:37:57.374Z,7.00
2022-10-18T00:38:07.193Z,7.30
2022-10-18T00:38:17.380Z,7.50
2022-10-18T00:38:27.277Z,7.50
2022-10-18T00:38:37.236Z,7.10
2022-10-18T00:38:47.244Z,7.80
2022-10-18T00:38:57.320Z,7.00
2022-10-18T00:39:07.319Z,7.00
2022-10-18T00:39:17.370Z,5.20
2022-10-18T00:39:27.355Z,6.40
2022-10-18T00:39:37.221Z,6.30
2022-10-18T00:39:47.302Z,7.40
2022-10-18T00:39:57.404Z,8.90
2022-10-18T00:40:07.208Z,8.70
2022-10-18T00:40:17.305Z,7.70
2022-10-18T00:40:27.163Z,6.30
2022-10-18T00:40:37.446Z,5.70
2022-10-18T00:40:47.329Z,5.70
2022-10-18T00:40:57.422Z,6.40
2022-10-18T00:41:07.375Z,6.60
2022-10-18T00:41:17.213Z,6.40
2022-10-18T00:41:27.282Z,5.40
2022-10-18T00:41:37.334Z,5.30
2022-10-18T00:41:47.408Z,6.60
2022-10-18T00:41:57.111Z,8.70
2022-10-18T00:42:07.341Z,8.10
2022-10-18T00:42:17.129Z,7.70
2022-10-18T00:42:27.205Z,5.70
2022-10-18T00:42:37.201Z,7.50
2022-10-18T00:42:47.417Z,7.20
2022-10-18T00:42:57.251Z,7.00
2022-10-18T00:43:07.214Z,5.30
2022-10-18T00:43:17.420Z,5.20
2022-10-18T00:43:27.385Z,5.30
2022-10-18T00:43:37.227Z,5.70
2022-10-18T00:43:47.174Z,6.60
2022-10-18T00:43:57.215Z,7.50
2022-10-18T00:44:07.156Z,7.80
2022-10-18T00:44:17.331Z,7.00
2022-10-18T00:44:27.159Z,7.40
2022-10-18T00:44:37.357Z,8.40
2022-10-18T00:44:47.326Z,10.20
2022-10-18T00:44:59.864Z,10.30
2022-10-18T00:45:07.380Z,9.10
2022-10-18T00:45:17.365Z,7.00
2022-10-18T00:45:27.159Z,7.40
2022-10-18T00:45:37.362Z,7.40
2022-10-18T00:45:47.156Z,8.20
2022-10-18T00:45:57.277Z,7.70
2022-10-18T00:46:07.428Z,9.70
2022-10-18T00:46:17.368Z,9.90
2022-10-18T00:46:31.529Z,7.90
2022-10-18T00:46:37.269Z,7.10
2022-10-18T00:46:47.300Z,6.80
2022-10-18T00:47:00.662Z,6.00
2022-10-18T00:47:07.292Z,5.90
2022-10-18T00:47:17.143Z,5.40
2022-10-18T00:47:27.147Z,5.30
2022-10-18T00:47:37.300Z,5.30
2022-10-18T00:47:47.141Z,5.50
2022-10-18T00:47:57.237Z,5.50
2022-10-18T00:48:07.298Z,6.20
2022-10-18T00:48:17.142Z,6.00
2022-10-18T00:48:27.306Z,6.90
2022-10-18T00:48:37.223Z,6.90
2022-10-18T00:48:47.409Z,7.20
2022-10-18T00:48:57.216Z,6.60
2022-10-18T00:49:07.345Z,6.90
2022-10-18T00:49:17.345Z,7.50
2022-10-18T00:49:27.103Z,7.20
2022-10-18T00:49:37.091Z,6.20
2022-10-18T00:49:47.264Z,6.10
2022-10-18T00:49:57.364Z,6.50
2022-10-18T00:50:08.627Z,6.70
2022-10-18T00:50:17.434Z,6.30
2022-10-18T00:50:27.322Z,6.40
2022-10-18T00:50:37.158Z,6.10
2022-10-18T00:50:47.369Z,6.80
2022-10-18T00:50:57.367Z,5.70
2022-10-18T00:51:07.319Z,5.90
2022-10-18T00:51:17.440Z,5.60
2022-10-18T00:51:27.338Z,6.30
2022-10-18T00:51:37.337Z,8.10
2022-10-18T00:51:52.154Z,7.30
2022-10-18T00:51:57.346Z,7.20
2022-10-18T00:52:07.178Z,5.50
2022-10-18T00:52:17.111Z,6.00
2022-10-18T00:52:27.223Z,6.00
2022-10-18T00:52:37.300Z,5.70
2022-10-18T00:52:47.244Z,5.40
2022-10-18T00:52:57.126Z,6.70
2022-10-18T00:53:07.272Z,7.90
2022-10-18T00:53:17.308Z,7.80
2022-10-18T00:53:27.395Z,6.50
2022-10-18T00:53:37.325Z,6.90
2022-10-18T00:53:47.263Z,6.60
2022-10-18T00:53:57.371Z,6.70
2022-10-18T00:54:07.244Z,5.60
2022-10-18T00:54:17.207Z,6.40
2022-10-18T00:54:27.294Z,6.30
2022-10-18T00:54:37.293Z,6.30
2022-10-18T00:54:47.141Z,6.70
2022-10-18T00:54:57.341Z,7.20
2022-10-18T00:55:07.171Z,7.30
2022-10-18T00:55:17.287Z,7.50
2022-10-18T00:55:27.119Z,6.70
2022-10-18T00:55:37.327Z,7.00
2022-10-18T00:55:47.327Z,6.20
2022-10-18T00:55:57.234Z,6.70
2022-10-18T00:56:07.371Z,5.80
2022-10-18T00:56:17.237Z,6.30
2022-10-18T00:56:27.133Z,8.70
2022-10-18T00:56:37.149Z,9.00
2022-10-18T00:56:47.196Z,8.50
2022-10-18T00:56:57.327Z,8.10
2022-10-18T00:57:07.410Z,9.40
2022-10-18T00:57:17.386Z,10.30
2022-10-18T00:57:27.416Z,8.60
2022-10-18T00:57:37.237Z,7.30
2022-10-18T00:57:47.367Z,5.90
2022-10-18T00:57:57.169Z,5.00
2022-10-18T00:58:07.350Z,5.40
2022-10-18T00:58:17.169Z,7.00
2022-10-18T00:58:27.120Z,7.50
2022-10-18T00:58:37.223Z,8.30
2022-10-18T00:58:47.193Z,7.30
2022-10-18T00:58:57.367Z,7.30
2022-10-18T00:59:07.132Z,6.80
2022-10-18T00:59:17.329Z,7.00
2022-10-18T00:59:27.205Z,7.70
2022-10-18T00:59:37.382Z,7.50
2022-10-18T00:59:47.431Z,6.90
2022-10-18T00:59:57.318Z,6.80
2022-10-18T01:00:07.328Z,6.10
2022-10-18T01:00:17.290Z,6.00
2022-10-18T01:00:27.179Z,5.10
2022-10-18T01:00:37.141Z,4.80
2022-10-18T01:00:47.213Z,5.40
2022-10-18T01:00:57.255Z,5.00
2022-10-18T01:01:07.234Z,5.70
2022-10-18T01:01:17.360Z,6.40
2022-10-18T01:01:28.452Z,6.70
2022-10-18T01:01:37.304Z,6.80
2022-10-18T01:01:47.348Z,6.20
2022-10-18T01:01:57.242Z,6.40
2022-10-18T01:02:07.397Z,7.10
2022-10-18T01:02:17.334Z,7.00
2022-10-18T01:02:27.292Z,6.90
2022-10-18T01:02:37.172Z,5.50
2022-10-18T01:02:47.149Z,5.30
2022-10-18T01:02:57.360Z,6.50
2022-10-18T01:03:07.169Z,7.00
2022-10-18T01:03:17.099Z,7.40
2022-10-18T01:03:27.247Z,6.60
2022-10-18T01:03:37.201Z,6.20
2022-10-18T01:03:47.316Z,6.40
2022-10-18T01:03:57.319Z,5.80
2022-10-18T01:04:07.170Z,5.90
2022-10-18T01:04:17.126Z,5.70
2022-10-18T01:04:27.298Z,6.30
2022-10-18T01:04:37.118Z,7.40
2022-10-18T01:04:47.395Z,7.80
2022-10-18T01:04:57.122Z,7.80
2022-10-18T01:05:07.155Z,7.10
2022-10-18T01:05:17.359Z,7.80
2022-10-18T01:05:27.205Z,7.30
2022-10-18T01:05:37.325Z,6.30
2022-10-18T01:05:47.127Z,6.50
2022-10-18T01:05:57.254Z,6.90
2022-10-18T01:06:07.178Z,6.50
2022-10-18T01:06:17.306Z,5.60
2022-10-18T01:06:27.306Z,5.40
2022-10-18T01:06:37.373Z,6.20
2022-10-18T01:06:47.426Z,6.20
2022-10-18T01:07:07.331Z,6.70
2022-10-18T01:07:17.202Z,6.60
2022-10-18T01:07:27.389Z,6.10
2022-10-18T01:07:37.208Z,5.60
2022-10-18T01:07:47.213Z,6.00
2022-10-18T01:07:57.127Z,6.10
2022-10-18T01:08:07.314Z,6.60
2022-10-18T01:08:17.113Z,6.10
2022-10-18T01:08:27.368Z,5.40
2022-10-18T01:08:37.174Z,5.10
2022-10-18T01:08:47.337Z,4.40
2022-10-18T01:08:57.227Z,4.40
2022-10-18T01:09:07.286Z,4.60
2022-10-18T01:09:17.213Z,4.70
2022-10-18T01:09:27.352Z,4.30
2022-10-18T01:09:37.204Z,5.60
2022-10-18T01:09:47.121Z,5.90
2022-10-18T01:09:57.227Z,6.40
2022-10-18T01:10:07.348Z,6.30
2022-10-18T01:10:17.270Z,6.60
2022-10-18T01:10:27.162Z,7.10
2022-10-18T01:10:37.284Z,6.40
2022-10-18T01:10:47.109Z,7.00
2022-10-18T01:10:57.281Z,6.50
2022-10-18T01:11:07.389Z,5.80
2022-10-18T01:11:17.426Z,7.00
2022-10-18T01:11:27.216Z,7.10
2022-10-18T01:11:37.107Z,8.20
2022-10-18T01:11:47.174Z,7.80
2022-10-18T01:11:57.379Z,8.20
2022-10-18T01:12:07.261Z,8.30
2022-10-18T01:12:17.312Z,9.00
2022-10-18T01:12:27.325Z,8.40
2022-10-18T01:12:37.364Z,8.60
2022-10-18T01:12:47.167Z,6.50
2022-10-18T01:12:57.349Z,6.80
2022-10-18T01:13:07.181Z,5.80
2022-10-18T01:13:19.835Z,6.70
2022-10-18T01:13:27.147Z,6.50
2022-10-18T01:13:37.176Z,7.60
2022-10-18T01:13:47.209Z,7.10
2022-10-18T01:13:57.479Z,7.00
2022-10-18T01:14:07.336Z,6.80
2022-10-18T01:14:17.222Z,6.50
2022-10-18T01:14:27.212Z,6.40
2022-10-18T01:14:37.340Z,5.50
2022-10-18T01:14:47.151Z,5.40
2022-10-18T01:14:57.432Z,5.70
2022-10-18T01:15:07.309Z,5.90
2022-10-18T01:15:17.269Z,6.90
2022-10-18T01:15:27.328Z,6.70
2022-10-18T01:15:37.152Z,6.90
2022-10-18T01:15:47.443Z,8.00
2022-10-18T01:15:57.479Z,8.40
2022-10-18T01:16:07.166Z,8.70
2022-10-18T01:16:17.121Z,6.50
2022-10-18T01:16:27.220Z,6.40
2022-10-18T01:16:37.275Z,6.00
2022-10-18T01:16:47.357Z,8.10
2022-10-18T01:16:57.125Z,8.50
2022-10-18T01:17:07.167Z,8.70
2022-10-18T01:17:20.805Z,7.40
2022-10-18T01:17:27.305Z,7.20
2022-10-18T01:17:37.337Z,6.90
2022-10-18T01:17:47.422Z,6.90
2022-10-18T01:17:57.279Z,6.50
2022-10-18T01:18:07.206Z,6.50
2022-10-18T01:18:17.268Z,7.80
2022-10-18T01:18:27.406Z,7.90
2022-10-18T01:18:37.138Z,8.10
2022-10-18T01:18:47.334Z,6.50
2022-10-18T01:18:57.376Z,8.20
2022-10-18T01:19:07.219Z,8.30
2022-10-18T01:19:17.320Z,8.10
2022-10-18T01:19:27.397Z,6.40
2022-10-18T01:19:37.418Z,7.00
2022-10-18T01:19:47.415Z,8.20
2022-10-18T01:19:57.316Z,8.50
2022-10-18T01:20:07.212Z,8.40
2022-10-18T01:20:17.237Z,7.30
2022-10-18T01:20:27.398Z,7.00
2022-10-18T01:20:37.144Z,6.60
2022-10-18T01:20:47.329Z,7.60
2022-10-18T01:20:57.150Z,7.00
2022-10-18T01:21:07.149Z,6.30
2022-10-18T01:21:17.155Z,5.20
2022-10-18T01:21:27.250Z,5.80
2022-10-18T01:21:37.208Z,6.70
2022-10-18T01:21:47.424Z,7.00
2022-10-18T01:21:57.155Z,6.80
2022-10-18T01:22:07.222Z,5.60
2022-10-18T01:22:17.291Z,5.70
2022-10-18T01:22:27.358Z,7.00
2022-10-18T01:22:37.170Z,8.00
2022-10-18T01:22:47.455Z,8.00
2022-10-18T01:22:57.149Z,7.20
2022-10-18T01:23:07.204Z,6.40
2022-10-18T01:23:17.285Z,6.30
2022-10-18T01:23:27.234Z,5.70
2022-10-18T01:23:37.353Z,7.10
2022-10-18T01:23:47.272Z,6.70
2022-10-18T01:23:57.351Z,7.70
2022-10-18T01:24:07.138Z,7.10
2022-10-18T01:24:17.120Z,7.30
2022-10-18T01:24:27.354Z,7.60
2022-10-18T01:24:37.209Z,7.30
2022-10-18T01:24:47.100Z,8.30
2022-10-18T01:24:57.394Z,7.70
2022-10-18T01:25:07.456Z,8.90
2022-10-18T01:25:17.367Z,9.10
2022-10-18T01:25:27.276Z,9.60
2022-10-18T01:25:37.302Z,8.50
2022-10-18T01:25:47.106Z,7.70
2022-10-18T01:25:57.255Z,6.60
2022-10-18T01:26:07.456Z,7.00
2022-10-18T01:26:17.213Z,7.50
2022-10-18T01:26:27.439Z,7.70
2022-10-18T01:26:37.368Z,7.00
2022-10-18T01:26:47.126Z,5.70
2022-10-18T01:26:57.416Z,5.50
2022-10-18T01:27:07.187Z,6.40
2022-10-18T01:27:17.164Z,6.80
2022-10-18T01:27:27.398Z,7.50
2022-10-18T01:27:37.270Z,6.80
2022-10-18T01:27:47.283Z,6.60
2022-10-18T01:27:57.229Z,7.30
2022-10-18T01:28:07.146Z,6.60
2022-10-18T01:28:17.285Z,6.10
2022-10-18T01:28:27.258Z,5.10
2022-10-18T01:28:37.235Z,5.50
2022-10-18T01:28:47.360Z,6.10
2022-10-18T01:28:57.387Z,5.50
2022-10-18T01:29:07.355Z,5.40
2022-10-18T01:29:17.302Z,5.30
2022-10-18T01:29:27.141Z,5.40
2022-10-18T01:29:37.385Z,6.00
2022-10-18T01:29:47.129Z,5.90
2022-10-18T01:29:57.347Z,6.50
2022-10-18T01:30:07.252Z,6.00
2022-10-18T01:30:17.384Z,7.00
2022-10-18T01:30:27.226Z,6.70
2022-10-18T01:30:37.414Z,7.30
2022-10-18T01:30:47.353Z,6.60
2022-10-18T01:30:57.384Z,6.80
2022-10-18T01:31:07.389Z,6.00
2022-10-18T01:31:17.148Z,6.30
2022-10-18T01:31:27.211Z,6.20
2022-10-18T01:31:37.395Z,5.90
2022-10-18T01:31:47.156Z,5.30
2022-10-18T01:31:58.942Z,5.10
2022-10-18T01:32:07.227Z,5.90
2022-10-18T01:32:17.206Z,7.10
2022-10-18T01:32:27.263Z,6.70
2022-10-18T01:32:37.248Z,6.90
2022-10-18T01:32:47.443Z,6.50
2022-10-18T01:32:57.160Z,7.70
2022-10-18T01:33:07.303Z,8.60
2022-10-18T01:33:17.269Z,7.30
2022-10-18T01:33:27.175Z,7.30
2022-10-18T01:33:37.277Z,5.60
2022-10-18T01:33:47.396Z,6.80
2022-10-18T01:33:57.189Z,6.00
2022-10-18T01:34:07.345Z,6.40
2022-10-18T01:34:17.171Z,5.90
2022-10-18T01:34:27.155Z,6.30
2022-10-18T01:34:37.153Z,7.90
2022-10-18T01:34:47.374Z,7.70
2022-10-18T01:34:57.388Z,7.40
2022-10-18T01:35:07.137Z,6.90
2022-10-18T01:35:17.259Z,8.00
2022-10-18T01:35:27.228Z,10.60
2022-10-18T01:35:37.159Z,9.50
2022-10-18T01:35:47.432Z,8.90
2022-10-18T01:35:57.192Z,6.90
2022-10-18T01:36:07.471Z,6.70
2022-10-18T01:36:17.385Z,7.00
2022-10-18T01:36:27.220Z,7.50
2022-10-18T01:36:37.129Z,7.90
2022-10-18T01:36:47.265Z,8.70
2022-10-18T01:36:57.210Z,7.60
2022-10-18T01:37:07.303Z,8.00
2022-10-18T01:37:17.255Z,7.10
2022-10-18T01:37:27.268Z,6.50
2022-10-18T01:37:37.134Z,5.60
2022-10-18T01:37:47.314Z,5.80
2022-10-18T01:37:57.339Z,6.20
2022-10-18T01:38:07.193Z,7.00
2022-10-18T01:38:17.267Z,7.50
2022-10-18T01:38:27.136Z,7.40
2022-10-18T01:38:37.395Z,7.30
2022-10-18T01:38:47.260Z,6.30
2022-10-18T01:38:57.248Z,6.20
2022-10-18T01:39:07.432Z,6.40
2022-10-18T01:39:17.129Z,6.70
2022-10-18T01:39:27.156Z,7.50
2022-10-18T01:39:37.343Z,7.00
2022-10-18T01:39:47.100Z,6.60
2022-10-18T01:39:57.247Z,6.40
2022-10-18T01:40:07.233Z,5.70
2022-10-18T01:40:17.114Z,5.80
2022-10-18T01:40:27.169Z,5.50
2022-10-18T01:40:37.146Z,5.80
2022-10-18T01:40:47.259Z,6.20
2022-10-18T01:40:57.245Z,6.30
2022-10-18T01:41:10.606Z,6.20
2022-10-18T01:41:17.317Z,6.80
2022-10-18T01:41:27.350Z,6.90
2022-10-18T01:41:37.388Z,8.30
2022-10-18T01:41:47.155Z,7.60
2022-10-18T01:42:01.628Z,7.60
2022-10-18T01:42:07.126Z,7.10
2022-10-18T01:42:17.190Z,7.20
2022-10-18T01:42:27.119Z,6.50
2022-10-18T01:42:37.275Z,7.10
2022-10-18T01:42:47.120Z,6.60
2022-10-18T01:42:57.376Z,6.50
2022-10-18T01:43:17.287Z,6.20
2022-10-18T01:43:27.403Z,7.60
2022-10-18T01:43:39.276Z,8.50
2022-10-18T01:43:47.219Z,8.20
2022-10-18T01:43:57.248Z,7.50
2022-10-18T01:44:07.139Z,8.20
2022-10-18T01:44:17.229Z,8.40
2022-10-18T01:44:27.453Z,8.40
2022-10-18T01:44:37.165Z,7.20
2022-10-18T01:44:47.213Z,7.60
2022-10-18T01:44:57.232Z,7.60
2022-10-18T01:45:07.145Z,7.20
2022-10-18T01:45:17.218Z,6.60
2022-10-18T01:45:27.423Z,6.40
2022-10-18T01:45:37.286Z,7.00
2022-10-18T01:45:47.303Z,7.30
2022-10-18T01:45:59.660Z,6.40
2022-10-18T01:46:07.383Z,6.50
2022-10-18T01:46:17.216Z,6.50
2022-10-18T01:46:27.439Z,6.60
2022-10-18T01:46:37.121Z,6.20
2022-10-18T01:46:47.305Z,6.80
2022-10-18T01:46:57.331Z,7.00
2022-10-18T01:47:07.258Z,6.50
2022-10-18T01:47:17.256Z,7.30
2022-10-18T01:47:27.197Z,7.20
2022-10-18T01:47:37.367Z,7.30
2022-10-18T01:47:47.310Z,5.40
2022-10-18T01:47:57.217Z,6.30
2022-10-18T01:48:07.396Z,6.70
2022-10-18T01:48:17.315Z,7.90
2022-10-18T01:48:27.325Z,8.00
2022-10-18T01:48:37.176Z,7.50
2022-10-18T01:48:47.415Z,6.90
2022-10-18T01:48:57.424Z,6.60
2022-10-18T01:49:07.118Z,6.90
2022-10-18T01:49:17.141Z,6.30
2022-10-18T01:49:27.434Z,5.50
2022-10-18T01:49:37.182Z,6.10
2022-10-18T01:49:47.289Z,6.20
2022-10-18T01:49:57.120Z,7.90
2022-10-18T01:50:07.135Z,6.80
2022-10-18T01:50:17.270Z,7.40
2022-10-18T01:50:27.332Z,5.70
2022-10-18T01:50:37.340Z,5.70
2022-10-18T01:50:47.327Z,6.00
2022-10-18T01:50:57.320Z,6.00
2022-10-18T01:51:07.410Z,7.70
2022-10-18T01:51:17.431Z,6.70
2022-10-18T01:51:27.215Z,6.80
2022-10-18T01:51:37.345Z,6.40
2022-10-18T01:51:47.241Z,6.50
2022-10-18T01:51:57.224Z,8.50
2022-10-18T01:52:17.239Z,7.70
2022-10-18T01:52:27.175Z,5.80
2022-10-18T01:52:37.327Z,6.10
2022-10-18T01:52:47.406Z,6.70
2022-10-18T01:52:57.175Z,7.50
2022-10-18T01:53:07.228Z,6.80
2022-10-18T01:53:17.349Z,6.70
2022-10-18T01:53:27.229Z,5.70
2022-10-18T01:53:37.273Z,5.90
2022-10-18T01:53:47.206Z,5.70
2022-10-18T01:53:57.353Z,6.10
2022-10-18T01:54:07.348Z,6.40
2022-10-18T01:54:17.104Z,6.60
2022-10-18T01:54:27.254Z,6.40
2022-10-18T01:54:37.336Z,6.60
2022-10-18T01:54:47.423Z,6.50
2022-10-18T01:54:57.148Z,6.60
2022-10-18T01:55:07.228Z,6.50
2022-10-18T01:55:17.352Z,6.60
2022-10-18T01:55:27.172Z,5.90
2022-10-18T01:55:37.397Z,6.30
2022-10-18T01:55:47.149Z,6.30
2022-10-18T01:55:57.400Z,7.80
2022-10-18T01:56:07.253Z,6.80
2022-10-18T01:56:17.363Z,7.30
2022-10-18T01:56:27.151Z,6.80
2022-10-18T01:56:37.342Z,6.90
2022-10-18T01:56:47.238Z,6.00
2022-10-18T01:56:57.271Z,6.80
2022-10-18T01:57:07.303Z,6.60
2022-10-18T01:57:17.364Z,6.40
2022-10-18T01:57:27.267Z,5.10
2022-10-18T01:57:37.134Z,6.00
2022-10-18T01:57:47.296Z,7.00
2022-10-18T01:57:57.287Z,7.00
2022-10-18T01:58:07.257Z,5.80
2022-10-18T01:58:17.128Z,5.50
2022-10-18T01:58:27.391Z,5.50
2022-10-18T01:58:37.408Z,6.00
2022-10-18T01:58:47.195Z,6.50
2022-10-18T01:58:57.385Z,6.20
2022-10-18T01:59:07.302Z,6.40
2022-10-18T01:59:17.365Z,6.80
2022-10-18T01:59:27.146Z,7.30
2022-10-18T01:59:37.401Z,7.30
2022-10-18T01:59:47.219Z,6.60
2022-10-18T01:59:57.313Z,6.10
2022-10-18T02:00:07.100Z,7.10
2022-10-18T02:00:17.201Z,6.40
2022-10-18T02:00:27.376Z,6.50
2022-10-18T02:00:37.136Z,6.40
2022-10-18T02:00:47.234Z,7.20
2022-10-18T02:00:57.117Z,7.30
2022-10-18T02:01:07.264Z,6.00
2022-10-18T02:01:17.298Z,6.60
2022-10-18T02:01:27.099Z,6.20
2022-10-18T02:01:37.272Z,6.90
2022-10-18T02:01:47.149Z,5.00
2022-10-18T02:01:57.389Z,5.60
2022-10-18T02:02:07.193Z,6.60
2022-10-18T02:02:17.142Z,7.20
2022-10-18T02:02:27.181Z,7.00
2022-10-18T02:02:37.188Z,6.00
2022-10-18T02:02:47.142Z,5.70
2022-10-18T02:02:57.128Z,6.10
2022-10-18T02:03:07.332Z,5.80
2022-10-18T02:03:17.308Z,5.50
2022-10-18T02:03:27.173Z,5.20
2022-10-18T02:03:37.265Z,5.00
2022-10-18T02:03:47.330Z,5.20
2022-10-18T02:03:57.315Z,5.40
2022-10-18T02:04:07.313Z,5.30
2022-10-18T02:04:17.109Z,5.60
2022-10-18T02:04:27.174Z,4.60
2022-10-18T02:04:37.311Z,4.70
2022-10-18T02:04:47.377Z,6.40
2022-10-18T02:04:57.335Z,7.80
2022-10-18T02:05:07.150Z,7.80
2022-10-18T02:05:17.365Z,6.20
2022-10-18T02:05:27.285Z,5.20
2022-10-18T02:05:37.265Z,4.90
2022-10-18T02:05:47.184Z,6.20
2022-10-18T02:05:57.248Z,6.40
2022-10-18T02:06:07.129Z,6.40
2022-10-18T02:06:17.204Z,6.30
2022-10-18T02:06:27.137Z,6.70
2022-10-18T02:06:37.346Z,7.80
2022-10-18T02:06:47.148Z,6.80
2022-10-18T02:06:57.213Z,8.60
2022-10-18T02:07:07.319Z,7.50
2022-10-18T02:07:17.205Z,7.10
2022-10-18T02:07:27.247Z,4.60
2022-10-18T02:07:37.243Z,5.30
2022-10-18T02:07:51.963Z,5.40
2022-10-18T02:08:12.054Z,6.60
2022-10-18T02:08:19.277Z,5.90
2022-10-18T02:08:23.411Z,6.20
2022-10-18T02:08:27.152Z,5.60
2022-10-18T02:08:37.322Z,6.20
2022-10-18T02:08:47.439Z,6.00
2022-10-18T02:08:57.130Z,5.70
2022-10-18T02:09:07.193Z,5.70
2022-10-18T02:09:17.396Z,7.00
2022-10-18T02:09:27.136Z,6.80
2022-10-18T02:09:37.363Z,6.90
2022-10-18T02:09:47.342Z,7.20
2022-10-18T02:09:57.269Z,7.90
2022-10-18T02:10:07.348Z,8.10
2022-10-18T02:10:17.408Z,6.40
2022-10-18T02:10:27.142Z,6.70
2022-10-18T02:10:37.328Z,7.00
2022-10-18T02:10:47.159Z,7.50
2022-10-18T02:10:57.358Z,6.50
2022-10-18T02:11:07.411Z,6.90
2022-10-18T02:11:17.269Z,6.10
2022-10-18T02:11:27.143Z,6.60
2022-10-18T02:11:37.245Z,6.40
2022-10-18T02:11:47.284Z,6.20
2022-10-18T02:11:57.104Z,5.90
2022-10-18T02:12:07.307Z,5.50
2022-10-18T02:12:17.248Z,6.90
2022-10-18T02:12:27.542Z,7.30
2022-10-18T02:12:37.269Z,7.20
2022-10-18T02:12:47.219Z,6.50
2022-10-18T02:12:57.337Z,5.90
2022-10-18T02:13:07.146Z,6.00
2022-10-18T02:13:17.150Z,6.00
2022-10-18T02:13:27.132Z,7.20
2022-10-18T02:13:37.486Z,6.50
2022-10-18T02:13:47.314Z,6.00